Watkins Glen, New York
Current Conditions -  °F | °C
As of 7:53 AM on Thursday 23 Oct 2014 (Local Time) from KELM Reporting Station
Overcast Overcast  
Wind Chill:   Ceiling: 1600
Heat Index:   Visibility: 10mi
Dew Point:   Wind: 15mph
Humidity: 80%   Direction: 10°N
Pressure: 29.98"   Gusts: 24mph
Location:  42.38°N, 76.87°W
Report Text: KELM 231153Z 01013G21KT 10SM OVC016 09/06 A2998 RMK AO2 PK WND 36027/1137 SLP155 T00890056 10094 20089 58000
Loading
Personal Weather Stations






























Interactive Weather Map
Tropical Storm Tracking
New forecast layout! Learn more

10-Day Weather Forecast

Advertisements
Track Severe Weather on mobile